Time;durP1;ratioP1;P1;durP2;ratioP2;P2;SDS_P1;SDS_P2;PMS_P1;PMS_P2;Temp;Humidity;BMP_temperature;BMP_pressure;BME280_temperature;BME280_humidity;BME280_pressure;Samples;Min_cycle;Max_cycle;Signal;HPM_P1;HPM_P2
2021/10/23 00:00:56;;;;;;;6.13;3.40;;;;;;;;;;5096850;28;20439;-66
2021/10/23 00:03:23;;;;;;;5.60;3.00;;;;;;;;;;5096814;28;20447;-66
2021/10/23 00:05:49;;;;;;;7.30;3.67;;;;;;;;;;5096783;28;20955;-66
2021/10/23 00:08:15;;;;;;;10.37;5.10;;;;;;;;;;5097299;28;20812;-67
2021/10/23 00:10:41;;;;;;;4.43;3.10;;;;;;;;;;5097238;28;20853;-66
2021/10/23 00:13:07;;;;;;;8.57;3.50;;;;;;;;;;5096499;28;20400;-66
2021/10/23 00:15:33;;;;;;;6.27;2.70;;;;;;;;;;5096616;28;20424;-66
2021/10/23 00:17:59;;;;;;;5.80;3.30;;;;;;;;;;5117070;28;20391;-66
2021/10/23 00:20:25;;;;;;;9.50;3.50;;;;;;;;;;5116730;28;20404;-66
2021/10/23 00:22:52;;;;;;;4.87;3.17;;;;;;;;;;5117067;28;20508;-66
2021/10/23 00:25:21;;;;;;;3.80;2.70;;;;;;;;;;5117122;28;20422;-66
2021/10/23 00:27:47;;;;;;;6.80;3.07;;;;;;;;;;5116552;28;20437;-66
2021/10/23 00:30:14;;;;;;;9.60;4.50;;;;;;;;;;5116761;28;20400;-66
2021/10/23 00:32:40;;;;;;;4.97;2.70;;;;;;;;;;5116924;28;20403;-66
2021/10/23 00:35:07;;;;;;;7.90;3.43;;;;;;;;;;5117149;28;20415;-66
2021/10/23 00:37:33;;;;;;;6.27;2.80;;;;;;;;;;5114578;28;20899;-67
2021/10/23 00:39:59;;;;;;;8.03;3.20;;;;;;;;;;5114010;28;20407;-66
2021/10/23 00:42:26;;;;;;;5.87;3.03;;;;;;;;;;5114049;28;20443;-66
2021/10/23 00:44:52;;;;;;;4.93;2.93;;;;;;;;;;5113667;28;20449;-66
2021/10/23 00:47:19;;;;;;;4.40;2.97;;;;;;;;;;5113821;28;20940;-66
2021/10/23 00:49:46;;;;;;;6.27;3.10;;;;;;;;;;5113860;28;20449;-66
2021/10/23 00:52:12;;;;;;;3.87;2.80;;;;;;;;;;5113473;28;20411;-66
2021/10/23 00:54:39;;;;;;;9.70;3.20;;;;;;;;;;5113657;28;20476;-66
2021/10/23 00:57:06;;;;;;;7.27;3.50;;;;;;;;;;5113665;28;20911;-66
2021/10/23 00:59:32;;;;;;;4.67;3.10;;;;;;;;;;5113805;28;20403;-66
2021/10/23 01:01:58;;;;;;;5.33;2.80;;;;;;;;;;5113494;28;20443;-66
2021/10/23 01:04:25;;;;;;;6.97;3.07;;;;;;;;;;5113493;28;20395;-66
2021/10/23 01:06:51;;;;;;;8.00;3.53;;;;;;;;;;5113686;28;20406;-66
2021/10/23 01:09:18;;;;;;;4.97;2.70;;;;;;;;;;5113823;28;20395;-66
2021/10/23 01:11:45;;;;;;;5.00;2.77;;;;;;;;;;5113485;28;20841;-66
2021/10/23 01:14:14;;;;;;;6.40;3.40;;;;;;;;;;5113323;28;20399;-67
2021/10/23 01:16:41;;;;;;;6.33;3.30;;;;;;;;;;5103592;28;20414;-66
2021/10/23 01:19:10;;;;;;;5.90;3.13;;;;;;;;;;5093380;28;20396;-65
2021/10/23 01:21:37;;;;;;;11.37;3.00;;;;;;;;;;5093184;28;20761;-66
2021/10/23 01:24:04;;;;;;;4.93;2.97;;;;;;;;;;5093368;28;20852;-66
2021/10/23 01:26:30;;;;;;;4.67;3.10;;;;;;;;;;5092850;28;20428;-66
2021/10/23 01:28:56;;;;;;;5.93;2.80;;;;;;;;;;5093514;28;20759;-66
2021/10/23 01:31:22;;;;;;;5.73;3.00;;;;;;;;;;5093278;28;20418;-66
2021/10/23 01:33:48;;;;;;;7.60;3.40;;;;;;;;;;5093258;28;20400;-66
2021/10/23 01:36:16;;;;;;;4.00;3.17;;;;;;;;;;5093212;28;20412;-66
2021/10/23 01:38:42;;;;;;;5.10;2.90;;;;;;;;;;5092748;28;20396;-64
2021/10/23 01:41:09;;;;;;;5.33;3.00;;;;;;;;;;5093020;28;20396;-66
2021/10/23 01:43:35;;;;;;;9.33;2.70;;;;;;;;;;5090867;28;20467;-64
2021/10/23 01:46:02;;;;;;;4.93;2.93;;;;;;;;;;5099861;22;20476;-61
2021/10/23 01:48:28;;;;;;;5.37;2.73;;;;;;;;;;5056614;28;20426;-62
2021/10/23 01:50:54;;;;;;;4.47;3.00;;;;;;;;;;5067912;28;20416;-62
2021/10/23 01:53:20;;;;;;;8.40;3.30;;;;;;;;;;5070373;28;20409;-62
2021/10/23 01:55:46;;;;;;;13.30;3.53;;;;;;;;;;5052641;28;20418;-62
2021/10/23 01:58:14;;;;;;;5.87;3.03;;;;;;;;;;5052499;28;20412;-62
2021/10/23 02:00:40;;;;;;;7.03;3.17;;;;;;;;;;5052230;28;20402;-62
2021/10/23 02:03:06;;;;;;;7.63;3.20;;;;;;;;;;5052197;28;20454;-62
2021/10/23 02:05:32;;;;;;;5.67;2.53;;;;;;;;;;5057013;28;20417;-64
2021/10/23 02:07:58;;;;;;;10.57;3.77;;;;;;;;;;5076265;28;20389;-62
2021/10/23 02:10:24;;;;;;;5.50;2.70;;;;;;;;;;5075987;28;20397;-62
2021/10/23 02:12:51;;;;;;;14.07;3.50;;;;;;;;;;5075964;28;20453;-62
2021/10/23 02:15:17;;;;;;;4.37;3.43;;;;;;;;;;5076138;28;20444;-63
2021/10/23 02:17:43;;;;;;;6.70;3.30;;;;;;;;;;5076151;28;20400;-62
2021/10/23 02:20:10;;;;;;;6.43;3.03;;;;;;;;;;5076234;28;20764;-62
2021/10/23 02:22:37;;;;;;;6.07;3.07;;;;;;;;;;5076000;28;20460;-61
2021/10/23 02:25:03;;;;;;;5.10;3.03;;;;;;;;;;5075636;28;20429;-62
2021/10/23 02:27:29;;;;;;;6.53;3.70;;;;;;;;;;5075994;28;20405;-62
2021/10/23 02:29:55;;;;;;;5.40;2.50;;;;;;;;;;5075686;28;20397;-62
2021/10/23 02:32:21;;;;;;;3.57;3.00;;;;;;;;;;5075940;28;20467;-62
2021/10/23 02:34:47;;;;;;;5.60;2.87;;;;;;;;;;5075792;28;20401;-62
2021/10/23 02:37:14;;;;;;;6.43;3.03;;;;;;;;;;5075529;28;20397;-63
2021/10/23 02:39:40;;;;;;;6.57;3.80;;;;;;;;;;5075521;28;20400;-62
2021/10/23 02:42:06;;;;;;;7.13;3.40;;;;;;;;;;5072696;28;20457;-61
2021/10/23 02:44:32;;;;;;;5.57;2.70;;;;;;;;;;5055322;28;20452;-62
2021/10/23 02:46:58;;;;;;;5.13;3.27;;;;;;;;;;5055289;28;20914;-62
2021/10/23 02:49:24;;;;;;;6.60;3.40;;;;;;;;;;5055309;28;20409;-62
2021/10/23 02:51:50;;;;;;;4.90;2.77;;;;;;;;;;5055110;28;20402;-62
2021/10/23 02:54:17;;;;;;;5.37;2.80;;;;;;;;;;5055222;28;20398;-62
2021/10/23 02:56:43;;;;;;;5.73;2.80;;;;;;;;;;5055095;28;20418;-62
2021/10/23 02:59:09;;;;;;;4.60;2.23;;;;;;;;;;5055243;28;20527;-62
2021/10/23 03:01:35;;;;;;;3.73;2.67;;;;;;;;;;5055114;28;20402;-61
2021/10/23 03:04:01;;;;;;;4.77;3.20;;;;;;;;;;5055070;28;20495;-63
2021/10/23 03:06:27;;;;;;;5.67;2.60;;;;;;;;;;5037054;28;20988;-62
2021/10/23 03:08:53;;;;;;;6.60;2.70;;;;;;;;;;5055360;28;20774;-58
2021/10/23 03:11:19;;;;;;;7.17;2.67;;;;;;;;;;5054956;28;20480;-60
2021/10/23 03:13:45;;;;;;;5.90;3.10;;;;;;;;;;5054967;28;20409;-61
2021/10/23 03:16:11;;;;;;;7.40;2.90;;;;;;;;;;5058079;28;20446;-63
2021/10/23 03:18:38;;;;;;;6.87;2.83;;;;;;;;;;5054749;28;20426;-63
2021/10/23 03:21:04;;;;;;;7.10;2.70;;;;;;;;;;5055141;28;20917;-63
2021/10/23 03:23:30;;;;;;;4.70;2.73;;;;;;;;;;5054635;28;20442;-63
2021/10/23 03:25:56;;;;;;;12.37;3.30;;;;;;;;;;5054940;28;20496;-61
2021/10/23 03:28:22;;;;;;;6.67;2.80;;;;;;;;;;5054620;28;20398;-62
2021/10/23 03:30:48;;;;;;;4.60;3.20;;;;;;;;;;5054940;28;20481;-63
2021/10/23 03:33:15;;;;;;;3.77;2.20;;;;;;;;;;5054766;28;20401;-63
2021/10/23 03:35:41;;;;;;;6.20;2.20;;;;;;;;;;5036496;28;20509;-64
2021/10/23 03:38:07;;;;;;;6.07;2.20;;;;;;;;;;5054529;28;20426;-63
2021/10/23 03:40:34;;;;;;;7.50;2.70;;;;;;;;;;5054760;28;20402;-63
2021/10/23 03:43:00;;;;;;;5.00;3.00;;;;;;;;;;5054403;28;20472;-63
2021/10/23 03:45:26;;;;;;;3.93;2.17;;;;;;;;;;5068211;28;20540;-64
2021/10/23 03:47:52;;;;;;;3.47;2.43;;;;;;;;;;5074277;28;20489;-61
2021/10/23 03:50:18;;;;;;;6.53;2.10;;;;;;;;;;5074279;28;20396;-61
2021/10/23 03:52:45;;;;;;;4.33;2.50;;;;;;;;;;5074435;28;20401;-61
2021/10/23 03:55:11;;;;;;;5.90;2.60;;;;;;;;;;5068191;28;20454;-62
2021/10/23 03:57:37;;;;;;;3.43;2.40;;;;;;;;;;5054186;28;20397;-64
2021/10/23 04:00:04;;;;;;;2.63;1.70;;;;;;;;;;5054273;28;20760;-63
2021/10/23 04:02:31;;;;;;;3.43;2.10;;;;;;;;;;5053808;28;20454;-64
2021/10/23 04:04:57;;;;;;;7.43;2.60;;;;;;;;;;5053861;28;20476;-64
2021/10/23 04:07:23;;;;;;;6.57;2.93;;;;;;;;;;5053845;28;20904;-64
2021/10/23 04:09:49;;;;;;;5.80;2.27;;;;;;;;;;5054097;28;20432;-63
2021/10/23 04:12:15;;;;;;;5.60;3.27;;;;;;;;;;5053864;28;20492;-64
2021/10/23 04:14:41;;;;;;;3.30;2.30;;;;;;;;;;5053744;28;20394;-64
2021/10/23 04:17:07;;;;;;;7.07;2.80;;;;;;;;;;5067179;28;20755;-64
2021/10/23 04:19:33;;;;;;;3.93;2.00;;;;;;;;;;5073914;28;20797;-63
2021/10/23 04:22:00;;;;;;;5.37;1.93;;;;;;;;;;5074210;28;20791;-64
2021/10/23 04:24:26;;;;;;;4.53;2.13;;;;;;;;;;5073573;28;20404;-63
2021/10/23 04:26:52;;;;;;;4.70;2.43;;;;;;;;;;5073030;28;20450;-64
2021/10/23 04:29:21;;;;;;;7.07;2.80;;;;;;;;;;5073764;28;20834;-64
2021/10/23 04:31:48;;;;;;;6.60;2.30;;;;;;;;;;5074072;28;20480;-63
2021/10/23 04:34:15;;;;;;;4.40;2.13;;;;;;;;;;5073564;28;20392;-62
2021/10/23 04:36:42;;;;;;;2.80;2.00;;;;;;;;;;5073481;28;20417;-61
2021/10/23 04:39:08;;;;;;;3.30;1.80;;;;;;;;;;5055611;28;20408;-58
2021/10/23 04:41:34;;;;;;;4.93;2.70;;;;;;;;;;5073685;28;20397;-61
2021/10/23 04:44:00;;;;;;;2.90;2.60;;;;;;;;;;5073222;28;20459;-60
2021/10/23 04:46:27;;;;;;;4.03;2.40;;;;;;;;;;5059138;28;20444;-62
2021/10/23 04:48:53;;;;;;;3.60;2.50;;;;;;;;;;5053464;28;20424;-62
2021/10/23 04:51:19;;;;;;;4.70;1.80;;;;;;;;;;5053111;28;20448;-62
2021/10/23 04:53:45;;;;;;;3.63;1.90;;;;;;;;;;5053136;28;20894;-62
2021/10/23 04:56:11;;;;;;;3.73;1.87;;;;;;;;;;5053203;28;20422;-62
2021/10/23 04:58:38;;;;;;;4.63;3.00;;;;;;;;;;5054561;28;20394;-62
2021/10/23 05:01:04;;;;;;;4.53;2.30;;;;;;;;;;5073381;28;20474;-62
2021/10/23 05:03:30;;;;;;;6.90;2.90;;;;;;;;;;5073377;28;20472;-63
2021/10/23 05:05:57;;;;;;;6.57;2.40;;;;;;;;;;5072819;28;20424;-62
2021/10/23 05:08:23;;;;;;;8.43;3.00;;;;;;;;;;5072975;28;20457;-62
2021/10/23 05:10:50;;;;;;;4.30;2.30;;;;;;;;;;5072982;28;20450;-62
2021/10/23 05:13:16;;;;;;;4.27;2.33;;;;;;;;;;5072992;28;20396;-64
2021/10/23 05:15:42;;;;;;;4.60;2.33;;;;;;;;;;5072779;28;20932;-62
2021/10/23 05:18:08;;;;;;;8.70;4.23;;;;;;;;;;5072973;28;20462;-61
2021/10/23 05:20:34;;;;;;;4.87;2.30;;;;;;;;;;5072947;28;20492;-62
2021/10/23 05:23:00;;;;;;;4.60;2.60;;;;;;;;;;5072922;28;20480;-64
2021/10/23 05:25:26;;;;;;;6.83;2.70;;;;;;;;;;5073147;28;20430;-61
2021/10/23 05:27:52;;;;;;;2.97;2.10;;;;;;;;;;5072887;28;20393;-61
2021/10/23 05:30:18;;;;;;;4.70;2.40;;;;;;;;;;5072862;28;20393;-61
2021/10/23 05:32:44;;;;;;;3.80;3.40;;;;;;;;;;5072874;28;20401;-62
2021/10/23 05:35:10;;;;;;;5.07;1.93;;;;;;;;;;5073044;28;20448;-61
2021/10/23 05:37:37;;;;;;;4.53;1.90;;;;;;;;;;5072731;28;20424;-61
2021/10/23 05:40:03;;;;;;;3.33;2.30;;;;;;;;;;5076530;28;20404;-59
2021/10/23 05:42:29;;;;;;;4.40;2.60;;;;;;;;;;5076743;28;20455;-62
2021/10/23 05:44:55;;;;;;;4.90;2.20;;;;;;;;;;5075259;28;20492;-63
2021/10/23 05:47:22;;;;;;;3.90;2.00;;;;;;;;;;5057024;28;20420;-62
2021/10/23 05:49:49;;;;;;;3.93;2.30;;;;;;;;;;5056864;28;20398;-62
2021/10/23 05:52:15;;;;;;;3.50;2.00;;;;;;;;;;5056483;28;20406;-62
2021/10/23 05:54:41;;;;;;;4.87;2.50;;;;;;;;;;5056385;28;20409;-62
2021/10/23 05:57:10;;;;;;;6.53;2.30;;;;;;;;;;5056556;28;20410;-62
2021/10/23 05:59:40;;;;;;;9.80;2.57;;;;;;;;;;5073589;28;20409;-62
2021/10/23 06:04:48;;;;;;;7.63;2.90;;;;;;;;;;5076628;28;20874;-62
2021/10/23 06:07:15;;;;;;;7.47;2.90;;;;;;;;;;5076358;28;20508;-62
2021/10/23 06:09:41;;;;;;;5.70;2.60;;;;;;;;;;5076781;28;20401;-61
2021/10/23 06:12:07;;;;;;;2.90;1.97;;;;;;;;;;5076105;28;20476;-61
2021/10/23 06:14:33;;;;;;;3.57;2.43;;;;;;;;;;5076002;28;20401;-60
2021/10/23 06:16:59;;;;;;;3.93;2.10;;;;;;;;;;5076210;28;20404;-62
2021/10/23 06:19:25;;;;;;;5.87;2.50;;;;;;;;;;5075826;28;20412;-62
2021/10/23 06:21:52;;;;;;;4.87;2.13;;;;;;;;;;5075782;28;20397;-62
2021/10/23 06:24:18;;;;;;;5.03;2.50;;;;;;;;;;5075902;28;20429;-62
2021/10/23 06:26:44;;;;;;;6.07;2.17;;;;;;;;;;5075745;28;20432;-62
2021/10/23 06:29:10;;;;;;;4.40;2.00;;;;;;;;;;5076003;28;20731;-62
2021/10/23 06:31:36;;;;;;;5.40;2.60;;;;;;;;;;5075840;28;20404;-60
2021/10/23 06:34:02;;;;;;;3.90;2.70;;;;;;;;;;5075702;28;20407;-62
2021/10/23 06:36:28;;;;;;;5.50;2.10;;;;;;;;;;5075509;28;20424;-62
2021/10/23 06:38:54;;;;;;;8.90;2.47;;;;;;;;;;5075995;28;20402;-62
2021/10/23 06:41:20;;;;;;;3.00;2.23;;;;;;;;;;5068313;28;20409;-62
2021/10/23 06:43:46;;;;;;;5.60;2.00;;;;;;;;;;5055212;28;20540;-63
2021/10/23 06:46:12;;;;;;;3.40;1.90;;;;;;;;;;5055270;28;20816;-63
2021/10/23 06:48:38;;;;;;;4.83;2.00;;;;;;;;;;5055553;28;20408;-64
2021/10/23 06:51:04;;;;;;;4.20;2.43;;;;;;;;;;5054739;28;20401;-63
2021/10/23 06:53:30;;;;;;;4.50;2.67;;;;;;;;;;5055290;28;20750;-63
2021/10/23 06:55:56;;;;;;;7.07;2.90;;;;;;;;;;5055305;28;20969;-63
2021/10/23 06:58:22;;;;;;;3.63;2.73;;;;;;;;;;5066664;28;20902;-64
2021/10/23 07:00:48;;;;;;;9.03;3.13;;;;;;;;;;5055291;28;20406;-63
2021/10/23 07:03:18;;;;;;;3.73;2.33;;;;;;;;;;5061151;28;20456;-63
2021/10/23 07:05:44;;;;;;;7.17;2.80;;;;;;;;;;5055796;28;20437;-63
2021/10/23 07:08:11;;;;;;;6.00;2.70;;;;;;;;;;5074849;28;20487;-68
2021/10/23 07:10:38;;;;;;;3.83;2.40;;;;;;;;;;5074328;28;20865;-66
2021/10/23 07:13:04;;;;;;;9.00;2.50;;;;;;;;;;5074888;28;20440;-67
2021/10/23 07:15:31;;;;;;;5.00;2.40;;;;;;;;;;5081028;28;20433;-67
2021/10/23 07:17:57;;;;;;;5.27;2.20;;;;;;;;;;5054864;28;20398;-67
2021/10/23 07:20:25;;;;;;;4.70;2.47;;;;;;;;;;5064329;28;20424;-67
2021/10/23 07:22:52;;;;;;;4.13;2.50;;;;;;;;;;5074408;28;21017;-66
2021/10/23 07:25:19;;;;;;;5.10;2.43;;;;;;;;;;5074534;28;20421;-66
2021/10/23 07:27:45;;;;;;;3.25;1.92;;;;;;;;;;5074222;28;20829;-70
2021/10/23 07:30:11;;;;;;;5.10;2.40;;;;;;;;;;5091281;28;20162;-70
2021/10/23 07:32:38;;;;;;;8.57;2.20;;;;;;;;;;5093258;28;20468;-68
2021/10/23 07:35:04;;;;;;;7.33;2.80;;;;;;;;;;5074168;28;20432;-70
2021/10/23 07:37:30;;;;;;;8.10;2.13;;;;;;;;;;5075198;28;20397;-68
2021/10/23 07:39:57;;;;;;;7.63;2.50;;;;;;;;;;5074548;28;20408;-70
2021/10/23 07:42:23;;;;;;;7.17;2.13;;;;;;;;;;5071630;28;20987;-69
2021/10/23 07:44:50;;;;;;;5.67;2.33;;;;;;;;;;5080308;28;20408;-68
2021/10/23 07:47:17;;;;;;;8.67;2.20;;;;;;;;;;5078708;28;20434;-65
2021/10/23 07:49:44;;;;;;;6.80;2.23;;;;;;;;;;5094210;28;20761;-67
2021/10/23 07:52:10;;;;;;;3.80;2.00;;;;;;;;;;5083637;28;20436;-67
2021/10/23 07:54:36;;;;;;;7.30;2.07;;;;;;;;;;5074408;28;20796;-67
2021/10/23 07:57:02;;;;;;;6.03;2.53;;;;;;;;;;5074240;28;20488;-69
2021/10/23 07:59:29;;;;;;;3.80;1.70;;;;;;;;;;5074196;28;20394;-67
2021/10/23 08:01:59;;;;;;;6.33;2.13;;;;;;;;;;5072499;28;22146;-65
2021/10/23 08:04:26;;;;;;;5.30;2.40;;;;;;;;;;5075053;28;20436;-64
2021/10/23 08:06:52;;;;;;;8.20;2.20;;;;;;;;;;5069662;28;20424;-67
2021/10/23 08:09:18;;;;;;;6.43;2.77;;;;;;;;;;5072498;28;20417;-69
2021/10/23 08:11:44;;;;;;;9.50;2.33;;;;;;;;;;5077734;28;20442;-69
2021/10/23 08:14:14;;;;;;;3.60;2.20;;;;;;;;;;5094106;28;20460;-70
2021/10/23 08:16:40;;;;;;;4.00;2.30;;;;;;;;;;5080275;28;20425;-68
2021/10/23 08:19:07;;;;;;;7.67;2.70;;;;;;;;;;5074132;28;20433;-69
2021/10/23 08:21:33;;;;;;;4.90;2.23;;;;;;;;;;5073713;28;20422;-70
2021/10/23 08:24:00;;;;;;;4.83;1.93;;;;;;;;;;5073761;28;20805;-67
2021/10/23 08:26:26;;;;;;;3.17;2.23;;;;;;;;;;5073986;28;20864;-65
2021/10/23 08:28:53;;;;;;;5.90;2.40;;;;;;;;;;5073488;28;20401;-65
2021/10/23 08:31:19;;;;;;;6.03;2.30;;;;;;;;;;5072823;28;20418;-66
2021/10/23 08:33:45;;;;;;;3.30;2.13;;;;;;;;;;5073544;28;20197;-67
2021/10/23 08:36:11;;;;;;;3.83;1.90;;;;;;;;;;5055364;28;20440;-68
2021/10/23 08:38:37;;;;;;;5.43;2.10;;;;;;;;;;5073334;28;20420;-68
2021/10/23 08:41:04;;;;;;;5.83;2.30;;;;;;;;;;5068250;28;20898;-68
2021/10/23 08:43:30;;;;;;;8.27;2.83;;;;;;;;;;5056783;28;20444;-67
2021/10/23 08:45:58;;;;;;;6.50;2.90;;;;;;;;;;5061743;28;20480;-68
2021/10/23 08:48:24;;;;;;;6.25;2.55;;;;;;;;;;5053249;28;20883;-64
2021/10/23 08:50:50;;;;;;;3.77;2.20;;;;;;;;;;5053164;28;20186;-67
2021/10/23 08:53:17;;;;;;;7.10;2.63;;;;;;;;;;5052434;28;20404;-64
2021/10/23 08:55:43;;;;;;;4.73;2.10;;;;;;;;;;5058460;28;20445;-66
2021/10/23 08:58:10;;;;;;;6.95;3.20;;;;;;;;;;5071489;28;20422;-63
2021/10/23 09:00:36;;;;;;;5.60;2.57;;;;;;;;;;5072219;28;20216;-67
2021/10/23 09:03:02;;;;;;;6.47;2.53;;;;;;;;;;5071809;28;20513;-65
2021/10/23 09:05:32;;;;;;;9.07;4.07;;;;;;;;;;5075194;28;20418;-67
2021/10/23 09:07:58;;;;;;;5.50;2.10;;;;;;;;;;5092177;28;20385;-64
2021/10/23 09:10:26;;;;;;;4.60;2.97;;;;;;;;;;5093405;28;20211;-68
2021/10/23 09:13:00;;;;;;;6.43;2.50;;;;;;;;;;5074859;28;20411;-69
2021/10/23 09:15:30;;;;;;;6.00;2.50;;;;;;;;;;5093252;28;20412;-68
2021/10/23 09:17:56;;;;;;;7.27;2.73;;;;;;;;;;5088978;28;20455;-71
2021/10/23 09:20:23;;;;;;;5.03;2.40;;;;;;;;;;5073692;28;20397;-68
2021/10/23 09:22:50;;;;;;;5.47;2.53;;;;;;;;;;5072948;28;20448;-66
2021/10/23 09:25:22;;;;;;;4.33;2.50;;;;;;;;;;5073043;28;20835;-67
2021/10/23 09:27:49;;;;;;;4.13;2.13;;;;;;;;;;5073158;28;20413;-69
2021/10/23 09:30:20;;;;;;;8.50;2.50;;;;;;;;;;5083348;22;20538;-75
2021/10/23 09:32:50;;;;;;;4.87;2.50;;;;;;;;;;5052155;28;20463;-74
2021/10/23 09:35:21;;;;;;;4.30;2.07;;;;;;;;;;5052872;28;20489;-75
2021/10/23 09:37:47;;;;;;;4.47;2.50;;;;;;;;;;5053114;28;20447;-75
2021/10/23 09:40:17;;;;;;;6.77;3.27;;;;;;;;;;5063315;28;20416;-75
2021/10/23 09:42:43;;;;;;;4.40;2.50;;;;;;;;;;5067384;28;20914;-75
2021/10/23 09:45:09;;;;;;;3.10;2.30;;;;;;;;;;5052710;28;20405;-75
2021/10/23 09:47:39;;;;;;;6.50;2.23;;;;;;;;;;5052683;28;20390;-74
2021/10/23 09:50:15;;;;;;;5.30;2.43;;;;;;;;;;5068035;28;20431;-75
2021/10/23 09:53:00;;;;;;;4.97;2.30;;;;;;;;;;5072847;28;20392;-75
2021/10/23 09:55:27;;;;;;;4.80;2.40;;;;;;;;;;5072844;28;20389;-74
2021/10/23 09:58:12;;;;;;;3.80;2.73;;;;;;;;;;5072809;28;20458;-75
2021/10/23 10:00:38;;;;;;;5.40;2.40;;;;;;;;;;5070444;28;20951;-75
2021/10/23 10:03:05;;;;;;;3.53;2.40;;;;;;;;;;5052650;28;20441;-75
2021/10/23 10:05:34;;;;;;;6.50;2.33;;;;;;;;;;5052843;28;20437;-74
2021/10/23 10:08:01;;;;;;;5.07;2.23;;;;;;;;;;5052742;28;20420;-74
2021/10/23 10:10:27;;;;;;;6.60;2.20;;;;;;;;;;5052575;28;20425;-75
2021/10/23 10:12:53;;;;;;;7.37;2.50;;;;;;;;;;5052537;28;20389;-75
2021/10/23 10:15:19;;;;;;;4.17;2.40;;;;;;;;;;5052896;28;20765;-74
2021/10/23 10:17:45;;;;;;;6.10;2.60;;;;;;;;;;5052605;28;20398;-74
2021/10/23 10:20:12;;;;;;;5.17;2.80;;;;;;;;;;5052369;28;20496;-74
2021/10/23 10:22:50;;;;;;;7.70;1.80;;;;;;;;;;5052835;28;20449;-74
2021/10/23 10:25:18;;;;;;;5.57;2.63;;;;;;;;;;5053297;28;20417;-74
2021/10/23 10:27:45;;;;;;;5.50;2.03;;;;;;;;;;5056131;28;20401;-74
2021/10/23 10:30:22;;;;;;;5.83;2.70;;;;;;;;;;5056167;28;20938;-74
2021/10/23 10:32:48;;;;;;;11.63;2.17;;;;;;;;;;5056287;28;20393;-74
2021/10/23 10:40:43;;;;;;;4.50;2.40;;;;;;;;;;5055933;28;20474;-74
2021/10/23 10:43:15;;;;;;;5.47;2.80;;;;;;;;;;5055827;28;20482;-74
2021/10/23 10:45:42;;;;;;;6.80;2.33;;;;;;;;;;5056519;28;20389;-74
2021/10/23 10:48:08;;;;;;;9.53;2.10;;;;;;;;;;5037875;28;20542;-74
2021/10/23 10:50:34;;;;;;;3.97;2.10;;;;;;;;;;5055419;28;20496;-74
2021/10/23 10:53:13;;;;;;;7.80;3.70;;;;;;;;;;5055609;28;20805;-74
2021/10/23 10:55:41;;;;;;;4.03;2.10;;;;;;;;;;5056108;28;20390;-73
2021/10/23 10:58:09;;;;;;;5.87;3.50;;;;;;;;;;5055570;28;20409;-73
2021/10/23 11:00:48;;;;;;;3.17;1.70;;;;;;;;;;5055698;28;20491;-74
2021/10/23 11:03:35;;;;;;;3.93;2.57;;;;;;;;;;5055449;28;20441;-73
2021/10/23 11:06:20;;;;;;;5.20;2.30;;;;;;;;;;5055326;28;20631;-74
2021/10/23 11:08:46;;;;;;;2.90;1.97;;;;;;;;;;5055566;28;20397;-74
2021/10/23 11:11:12;;;;;;;7.43;2.50;;;;;;;;;;5055358;28;20410;-75
2021/10/23 11:13:44;;;;;;;4.20;2.10;;;;;;;;;;5055355;28;20398;-75
2021/10/23 11:16:29;;;;;;;3.73;1.67;;;;;;;;;;5056173;28;20425;-75
2021/10/23 11:18:55;;;;;;;3.77;2.50;;;;;;;;;;5056315;28;20401;-75
2021/10/23 11:21:22;;;;;;;6.60;2.90;;;;;;;;;;5055197;28;20467;-74
2021/10/23 11:23:51;;;;;;;6.03;2.20;;;;;;;;;;5055613;28;20449;-75
2021/10/23 11:26:18;;;;;;;4.60;2.00;;;;;;;;;;5055420;28;20394;-74
2021/10/23 11:28:44;;;;;;;3.80;2.30;;;;;;;;;;5055605;28;20430;-74
2021/10/23 11:31:20;;;;;;;5.03;2.07;;;;;;;;;;5075333;28;20435;-75
2021/10/23 11:33:46;;;;;;;3.80;1.80;;;;;;;;;;5076970;28;20406;-75
2021/10/23 11:36:16;;;;;;;6.97;2.47;;;;;;;;;;5094743;28;20414;-75
2021/10/23 11:38:46;;;;;;;2.80;1.63;;;;;;;;;;5064702;28;20843;-74
2021/10/23 11:41:12;;;;;;;2.63;1.77;;;;;;;;;;5054368;28;20421;-75
2021/10/23 11:43:39;;;;;;;4.13;1.83;;;;;;;;;;5054912;28;20805;-74
2021/10/23 11:46:06;;;;;;;4.87;2.07;;;;;;;;;;5054594;28;20389;-74
2021/10/23 11:48:33;;;;;;;6.30;2.20;;;;;;;;;;5054704;28;20828;-74
2021/10/23 11:50:59;;;;;;;10.50;2.10;;;;;;;;;;5054333;28;20417;-74
2021/10/23 11:53:30;;;;;;;5.60;1.80;;;;;;;;;;5065914;28;20462;-70
2021/10/23 11:56:06;;;;;;;4.83;2.50;;;;;;;;;;5073961;28;20919;-70
2021/10/23 11:58:33;;;;;;;4.33;2.10;;;;;;;;;;5073926;28;20408;-71
2021/10/23 12:00:59;;;;;;;4.27;1.57;;;;;;;;;;5073461;28;20437;-71
2021/10/23 12:03:46;;;;;;;3.87;1.77;;;;;;;;;;5073688;28;20450;-71
2021/10/23 12:06:15;;;;;;;6.97;1.73;;;;;;;;;;5073660;28;20401;-72
2021/10/23 12:08:41;;;;;;;3.80;2.00;;;;;;;;;;5074228;28;20405;-69
2021/10/23 12:11:19;;;;;;;3.27;1.47;;;;;;;;;;5073942;28;20433;-69
2021/10/23 12:13:51;;;;;;;3.20;1.93;;;;;;;;;;5074060;28;20399;-68
2021/10/23 12:16:32;;;;;;;2.77;1.30;;;;;;;;;;5073862;28;20770;-71
2021/10/23 12:19:02;;;;;;;2.13;1.50;;;;;;;;;;5073851;28;20397;-70
2021/10/23 12:21:34;;;;;;;2.20;1.60;;;;;;;;;;5056291;28;20504;-71
2021/10/23 12:24:00;;;;;;;3.70;0.93;;;;;;;;;;5074193;28;20459;-72
2021/10/23 12:26:32;;;;;;;1.83;0.93;;;;;;;;;;5074651;28;20404;-67
2021/10/23 12:29:06;;;;;;;3.20;1.20;;;;;;;;;;5074332;28;20530;-69
2021/10/23 12:31:51;;;;;;;3.03;1.43;;;;;;;;;;5054605;28;20802;-72
2021/10/23 12:34:17;;;;;;;1.92;1.38;;;;;;;;;;5062137;28;20417;-69
2021/10/23 12:36:49;;;;;;;2.83;1.20;;;;;;;;;;5073268;28;20177;-68
2021/10/23 12:39:20;;;;;;;4.60;1.77;;;;;;;;;;5073269;28;20424;-68
2021/10/23 12:41:46;;;;;;;3.30;1.93;;;;;;;;;;5073030;28;20408;-69
2021/10/23 12:44:17;;;;;;;4.70;1.97;;;;;;;;;;5073315;28;20544;-68
2021/10/23 12:46:43;;;;;;;3.97;2.33;;;;;;;;;;5072842;28;20405;-65
2021/10/23 12:49:09;;;;;;;4.90;2.20;;;;;;;;;;5072760;28;20543;-66
2021/10/23 12:51:35;;;;;;;5.00;3.10;;;;;;;;;;5073179;28;20404;-65
2021/10/23 12:54:01;;;;;;;3.33;2.33;;;;;;;;;;5073436;28;20893;-66
2021/10/23 12:56:27;;;;;;;3.47;2.00;;;;;;;;;;5072682;28;20427;-66
2021/10/23 12:58:53;;;;;;;3.40;2.53;;;;;;;;;;5059698;28;20416;-68
2021/10/23 13:01:19;;;;;;;3.60;2.00;;;;;;;;;;5072105;28;20428;-67
2021/10/23 13:03:45;;;;;;;3.53;2.50;;;;;;;;;;5072836;28;20440;-66
2021/10/23 13:06:11;;;;;;;5.07;2.80;;;;;;;;;;5072535;28;20436;-67
2021/10/23 13:08:37;;;;;;;3.47;2.43;;;;;;;;;;5072609;28;20773;-67
2021/10/23 13:11:03;;;;;;;3.63;1.60;;;;;;;;;;5072297;28;20522;-67
2021/10/23 13:13:30;;;;;;;4.20;2.30;;;;;;;;;;5072889;28;20400;-68
2021/10/23 13:15:56;;;;;;;3.63;2.10;;;;;;;;;;5072581;28;20432;-69
2021/10/23 13:18:22;;;;;;;3.73;2.37;;;;;;;;;;5072578;28;20482;-66
2021/10/23 13:20:48;;;;;;;7.90;2.83;;;;;;;;;;5072300;28;20954;-69
2021/10/23 13:23:14;;;;;;;5.60;2.60;;;;;;;;;;5072276;28;20932;-71
2021/10/23 13:25:40;;;;;;;3.63;2.30;;;;;;;;;;5072202;28;20488;-72
2021/10/23 13:28:06;;;;;;;6.67;3.10;;;;;;;;;;5072580;28;20840;-67
2021/10/23 13:30:33;;;;;;;3.47;2.13;;;;;;;;;;5071941;28;20970;-65
2021/10/23 13:32:59;;;;;;;3.80;2.60;;;;;;;;;;5067885;28;20417;-65
2021/10/23 13:35:25;;;;;;;3.27;1.83;;;;;;;;;;5072819;28;20503;-63
2021/10/23 13:37:51;;;;;;;3.77;2.20;;;;;;;;;;5075870;28;20420;-65
2021/10/23 13:40:17;;;;;;;2.60;2.00;;;;;;;;;;5073184;28;20485;-66
2021/10/23 13:42:44;;;;;;;3.83;2.00;;;;;;;;;;5073514;28;20499;-64
2021/10/23 13:45:10;;;;;;;2.97;1.90;;;;;;;;;;5073626;28;20424;-68
2021/10/23 13:47:36;;;;;;;3.90;1.97;;;;;;;;;;5072175;28;20424;-63
2021/10/23 13:50:03;;;;;;;6.03;2.90;;;;;;;;;;5071446;28;20424;-62
2021/10/23 13:52:29;;;;;;;3.30;1.63;;;;;;;;;;5072364;28;20769;-65
2021/10/23 13:54:55;;;;;;;4.07;1.83;;;;;;;;;;5071663;28;20960;-63
2021/10/23 13:57:22;;;;;;;3.63;2.03;;;;;;;;;;5073021;28;20404;-65
2021/10/23 13:59:48;;;;;;;4.23;2.10;;;;;;;;;;5072054;28;20757;-65
2021/10/23 14:02:14;;;;;;;3.53;1.80;;;;;;;;;;5057596;28;20420;-66
2021/10/23 14:04:40;;;;;;;2.73;1.97;;;;;;;;;;5057814;28;20940;-65
2021/10/23 14:07:06;;;;;;;3.80;2.00;;;;;;;;;;5075218;28;20829;-65
2021/10/23 14:09:32;;;;;;;3.60;2.20;;;;;;;;;;5076303;28;20452;-65
2021/10/23 14:11:58;;;;;;;2.47;1.77;;;;;;;;;;5076305;28;20962;-64
2021/10/23 14:14:24;;;;;;;3.27;2.23;;;;;;;;;;5076142;28;20465;-63
2021/10/23 14:16:50;;;;;;;3.90;2.30;;;;;;;;;;5075350;28;20420;-65
2021/10/23 14:19:16;;;;;;;4.83;2.13;;;;;;;;;;5074996;28;20424;-66
2021/10/23 14:21:42;;;;;;;4.23;2.67;;;;;;;;;;5075134;28;20428;-63
2021/10/23 14:24:08;;;;;;;3.03;2.10;;;;;;;;;;5075306;28;20991;-65
2021/10/23 14:26:35;;;;;;;3.67;2.10;;;;;;;;;;5075837;28;20566;-64
2021/10/23 14:29:03;;;;;;;3.50;2.03;;;;;;;;;;5074920;28;20414;-65
2021/10/23 14:31:30;;;;;;;3.87;2.43;;;;;;;;;;5067187;28;20427;-65
2021/10/23 14:33:57;;;;;;;3.40;1.93;;;;;;;;;;5075452;28;20491;-66
2021/10/23 14:36:23;;;;;;;3.00;2.07;;;;;;;;;;5075328;28;20412;-67
2021/10/23 14:38:49;;;;;;;3.40;2.07;;;;;;;;;;5075491;28;20811;-65
2021/10/23 14:41:15;;;;;;;11.43;2.23;;;;;;;;;;5074860;28;20444;-65
2021/10/23 14:43:42;;;;;;;3.93;2.37;;;;;;;;;;5075496;28;20452;-64
2021/10/23 14:46:08;;;;;;;2.63;1.90;;;;;;;;;;5075215;28;20417;-65
2021/10/23 14:48:34;;;;;;;10.33;2.20;;;;;;;;;;5075664;28;20759;-67
2021/10/23 14:51:01;;;;;;;3.30;2.00;;;;;;;;;;5074533;28;20998;-65